createdAt,value
2022-08-16T00:01:28.868Z,96329.53
2022-08-16T00:04:02.158Z,96335.34
2022-08-16T00:06:33.549Z,96336.84
2022-08-16T00:09:02.872Z,96338.56
2022-08-16T00:11:30.880Z,96334.69
2022-08-16T00:13:59.593Z,96334.53
2022-08-16T00:17:05.736Z,96333.06
2022-08-16T00:19:24.605Z,96329.22
2022-08-16T00:22:01.617Z,96326.69
2022-08-16T00:24:36.295Z,96323.41
2022-08-16T00:27:06.697Z,96328.53
2022-08-16T00:29:36.579Z,96335.50
2022-08-16T00:32:07.975Z,96334.75
2022-08-16T00:34:43.392Z,96325.34
2022-08-16T00:37:16.877Z,96330.38
2022-08-16T00:39:57.720Z,96327.84
2022-08-16T00:42:31.844Z,96333.06
2022-08-16T00:45:06.276Z,96330.88
2022-08-16T00:47:37.993Z,96328.78
2022-08-16T00:50:11.403Z,96335.06
2022-08-16T00:52:50.863Z,96332.78
2022-08-16T00:55:23.350Z,96339.59
2022-08-16T00:57:58.490Z,96333.75
2022-08-16T01:00:31.055Z,96339.72
2022-08-16T01:03:03.563Z,96340.69
2022-08-16T01:05:32.972Z,96346.97
2022-08-16T01:08:02.702Z,96349.88
2022-08-16T01:10:53.169Z,96346.69
2022-08-16T01:13:23.952Z,96346.31
2022-08-16T01:15:58.335Z,96357.63
2022-08-16T01:18:40.061Z,96358.09
2022-08-16T01:21:33.931Z,96349.84
2022-08-16T01:24:53.456Z,96357.50
2022-08-16T01:27:09.081Z,96353.31
2022-08-16T01:29:58.691Z,96360.16
2022-08-16T01:32:31.872Z,96357.66
2022-08-16T01:35:09.372Z,96363.88
2022-08-16T01:37:54.141Z,96356.97
2022-08-16T01:40:31.448Z,96366.88
2022-08-16T01:43:00.116Z,96368.69
2022-08-16T01:45:40.852Z,96362.56
2022-08-16T01:48:19.906Z,96372.50
2022-08-16T01:51:09.217Z,96363.53
2022-08-16T01:53:42.055Z,96362.44
2022-08-16T01:56:29.014Z,96357.06
2022-08-16T01:59:00.390Z,96355.28
2022-08-16T02:01:31.859Z,96353.00
2022-08-16T02:04:10.987Z,96352.53
2022-08-16T02:06:45.900Z,96358.88
2022-08-16T02:09:17.883Z,96355.38
2022-08-16T02:11:53.210Z,96365.34
2022-08-16T02:14:26.575Z,96357.19
2022-08-16T02:16:57.427Z,96353.84
2022-08-16T02:20:00.159Z,96348.00
2022-08-16T02:22:36.018Z,96346.94
2022-08-16T02:25:14.770Z,96344.88
2022-08-16T02:27:47.947Z,96347.75
2022-08-16T02:30:35.914Z,96351.59
2022-08-16T02:33:08.261Z,96355.06
2022-08-16T02:35:49.701Z,96360.53
2022-08-16T02:38:24.278Z,96363.44
2022-08-16T02:40:54.636Z,96364.97
2022-08-16T02:43:26.610Z,96359.22
2022-08-16T02:45:58.659Z,96367.72
2022-08-16T02:48:30.093Z,96367.94
2022-08-16T02:51:06.520Z,96371.06
2022-08-16T02:53:45.136Z,96372.16
2022-08-16T02:56:16.120Z,96375.25
2022-08-16T02:58:48.090Z,96355.53
2022-08-16T03:01:24.683Z,96370.81
2022-08-16T03:04:39.998Z,96372.47
2022-08-16T03:06:56.854Z,96366.78
2022-08-16T03:09:48.212Z,96373.09
2022-08-16T03:12:30.466Z,96380.38
2022-08-16T03:15:08.020Z,96377.75
2022-08-16T03:17:37.596Z,96380.16
2022-08-16T03:20:32.139Z,96382.78
2022-08-16T03:23:03.194Z,96389.84
2022-08-16T03:25:41.030Z,96381.94
2022-08-16T03:28:12.408Z,96395.47
2022-08-16T03:30:42.975Z,96395.31
2022-08-16T03:33:14.212Z,96388.88
2022-08-16T03:35:49.858Z,96391.25
2022-08-16T03:38:35.019Z,96395.19
2022-08-16T03:41:24.299Z,96396.59
2022-08-16T03:43:56.914Z,96394.94
2022-08-16T03:46:47.195Z,96403.03
2022-08-16T03:49:23.916Z,96403.03
2022-08-16T03:52:07.426Z,96413.09
2022-08-16T03:54:38.164Z,96407.69
2022-08-16T03:57:16.442Z,96410.00
2022-08-16T03:59:45.891Z,96416.69
2022-08-16T04:02:22.182Z,96411.41
2022-08-16T04:04:54.086Z,96419.03
2022-08-16T04:07:24.814Z,96418.56
2022-08-16T04:09:53.736Z,96423.84
2022-08-16T04:12:53.397Z,96422.72
2022-08-16T04:15:16.812Z,96422.63
2022-08-16T04:17:57.923Z,96425.38
2022-08-16T04:20:33.977Z,96436.72
2022-08-16T04:23:08.228Z,96435.19
2022-08-16T04:25:38.831Z,96437.56
2022-08-16T04:28:29.330Z,96434.44
2022-08-16T04:30:59.197Z,96440.19
2022-08-16T04:33:34.786Z,96445.69
2022-08-16T04:36:04.967Z,96442.81
2022-08-16T04:38:34.683Z,96447.00
2022-08-16T04:41:03.697Z,96449.50
2022-08-16T04:43:38.594Z,96455.47
2022-08-16T04:47:00.231Z,96464.38
2022-08-16T04:49:05.338Z,96463.38
2022-08-16T04:51:35.757Z,96465.41
2022-08-16T04:54:05.606Z,96481.13
2022-08-16T04:56:34.853Z,96474.13
2022-08-16T04:59:11.934Z,96482.38
2022-08-16T05:01:58.039Z,96473.34
2022-08-16T05:04:30.210Z,96477.16
2022-08-16T05:06:59.973Z,96477.59
2022-08-16T05:09:45.208Z,96479.25
2022-08-16T05:12:18.252Z,96485.22
2022-08-16T05:15:02.057Z,96482.56
2022-08-16T05:17:32.653Z,96486.22
2022-08-16T05:20:35.182Z,96485.59
2022-08-16T05:22:56.426Z,96495.06
2022-08-16T05:25:24.728Z,96500.97
2022-08-16T05:28:11.862Z,96498.84
2022-08-16T05:30:44.769Z,96500.28
2022-08-16T05:33:21.521Z,96490.69
2022-08-16T05:35:55.229Z,96496.97
2022-08-16T05:38:47.079Z,96499.75
2022-08-16T05:41:17.320Z,96500.75
2022-08-16T05:43:48.113Z,96505.38
2022-08-16T05:46:34.449Z,96506.22
2022-08-16T05:49:10.702Z,96498.69
2022-08-16T05:51:45.735Z,96494.06
2022-08-16T05:54:25.635Z,96495.47
2022-08-16T05:56:57.940Z,96501.88
2022-08-16T05:59:29.136Z,96495.59
2022-08-16T06:01:59.326Z,96495.03
2022-08-16T06:04:35.899Z,96506.97
2022-08-16T06:07:24.781Z,96504.50
2022-08-16T06:10:05.750Z,96512.59
2022-08-16T06:12:36.630Z,96508.69
2022-08-16T06:15:11.747Z,96519.28
2022-08-16T06:17:44.569Z,96512.69
2022-08-16T06:20:24.080Z,96515.06
2022-08-16T06:23:03.896Z,96512.13
2022-08-16T06:25:52.956Z,96512.63
2022-08-16T06:28:36.414Z,96505.22
2022-08-16T06:31:12.237Z,96512.16
2022-08-16T06:34:53.241Z,96508.47
2022-08-16T06:36:59.454Z,96509.88
2022-08-16T06:39:30.917Z,96515.94
2022-08-16T06:42:07.810Z,96508.47
2022-08-16T06:44:51.279Z,96507.28
2022-08-16T06:47:56.414Z,96510.19
2022-08-16T06:50:28.646Z,96515.94
2022-08-16T06:53:06.845Z,96524.03
2022-08-16T06:55:43.382Z,96519.16
2022-08-16T06:58:22.735Z,96526.00
2022-08-16T07:01:10.043Z,96522.38
2022-08-16T07:03:55.472Z,96507.72
2022-08-16T07:06:31.617Z,96516.81
2022-08-16T07:09:09.395Z,96509.28
2022-08-16T07:11:48.131Z,96507.47
2022-08-16T07:14:28.573Z,96511.34
2022-08-16T07:17:01.017Z,96513.91
2022-08-16T07:20:03.053Z,96505.31
2022-08-16T07:22:39.253Z,96497.13
2022-08-16T07:25:24.637Z,96498.25
2022-08-16T07:27:54.833Z,96508.84
2022-08-16T07:30:26.637Z,96504.50
2022-08-16T07:33:52.005Z,96511.53
2022-08-16T07:36:14.935Z,96512.19
2022-08-16T07:38:51.807Z,96516.34
2022-08-16T07:41:20.832Z,96520.69
2022-08-16T07:43:56.846Z,96521.69
2022-08-16T07:46:37.676Z,96520.06
2022-08-16T07:49:20.065Z,96514.31
2022-08-16T07:51:48.927Z,96514.97
2022-08-16T07:54:32.370Z,96531.59
2022-08-16T07:57:12.081Z,96538.06
2022-08-16T07:59:46.022Z,96531.97
2022-08-16T08:02:20.547Z,96532.84
2022-08-16T08:04:54.517Z,96540.03
2022-08-16T08:07:23.001Z,96547.25
2022-08-16T08:09:57.050Z,96543.53
2022-08-16T08:12:32.475Z,96542.47
2022-08-16T08:15:10.584Z,96536.41
2022-08-16T08:17:42.884Z,96547.59
2022-08-16T08:20:26.698Z,96552.78
2022-08-16T08:23:01.266Z,96562.94
2022-08-16T08:25:55.074Z,96564.22
2022-08-16T08:28:31.912Z,96556.16
2022-08-16T08:31:05.699Z,96557.16
2022-08-16T08:33:38.347Z,96566.22
2022-08-16T08:36:21.959Z,96562.66
2022-08-16T08:38:53.460Z,96562.56
2022-08-16T08:41:28.414Z,96564.44
2022-08-16T08:43:58.966Z,96574.09
2022-08-16T08:46:35.658Z,96570.00
2022-08-16T08:49:08.836Z,96571.13
2022-08-16T08:51:42.910Z,96571.47
2022-08-16T08:54:18.826Z,96573.56
2022-08-16T08:56:53.472Z,96577.97
2022-08-16T08:59:40.856Z,96577.88
2022-08-16T09:02:15.001Z,96576.16
2022-08-16T09:04:52.638Z,96576.13
2022-08-16T09:07:23.607Z,96580.34
2022-08-16T09:10:06.099Z,96578.06
2022-08-16T09:12:37.536Z,96581.75
2022-08-16T09:15:21.730Z,96574.25
2022-08-16T09:17:57.019Z,96568.31
2022-08-16T09:20:30.356Z,96577.31
2022-08-16T09:22:59.436Z,96572.91
2022-08-16T09:25:33.606Z,96577.56
2022-08-16T09:28:09.001Z,96577.44
2022-08-16T09:30:43.146Z,96572.19
2022-08-16T09:33:20.018Z,96576.28
2022-08-16T09:35:53.566Z,96580.88
2022-08-16T09:38:31.953Z,96577.22
2022-08-16T09:41:01.171Z,96567.56
2022-08-16T09:46:48.992Z,96572.47
2022-08-16T09:49:08.434Z,96574.56
2022-08-16T09:51:37.313Z,96570.94
2022-08-16T09:54:09.721Z,96568.41
2022-08-16T09:56:52.900Z,96570.16
2022-08-16T09:59:23.311Z,96562.88
2022-08-16T10:01:53.224Z,96566.72
2022-08-16T10:04:30.497Z,96569.28
2022-08-16T10:07:12.020Z,96566.13
2022-08-16T10:09:54.588Z,96564.91
2022-08-16T10:12:43.440Z,96567.00
2022-08-16T10:15:16.913Z,96562.94
2022-08-16T10:18:01.316Z,96575.47
2022-08-16T10:20:35.135Z,96559.88
2022-08-16T10:23:07.378Z,96559.44
2022-08-16T10:27:20.518Z,96563.84
2022-08-16T10:28:31.915Z,96554.66
2022-08-16T10:31:03.520Z,96555.41
2022-08-16T10:33:35.398Z,96560.13
2022-08-16T10:36:39.317Z,96549.75
2022-08-16T10:39:02.139Z,96553.59
2022-08-16T10:41:32.942Z,96556.63
2022-08-16T10:44:01.533Z,96549.31
2022-08-16T10:46:39.098Z,96558.56
2022-08-16T10:49:09.274Z,96552.28
2022-08-16T10:52:02.695Z,96556.53
2022-08-16T10:54:30.181Z,96553.34
2022-08-16T10:57:04.009Z,96547.38
2022-08-16T10:59:45.911Z,96553.66
2022-08-16T11:02:58.871Z,96553.81
2022-08-16T11:05:14.170Z,96550.25
2022-08-16T11:07:52.394Z,96555.97
2022-08-16T11:19:05.836Z,96556.63
2022-08-16T11:22:38.597Z,96559.38
2022-08-16T11:24:42.843Z,96564.50
2022-08-16T11:27:23.566Z,96573.56
2022-08-16T11:29:54.996Z,96577.66
2022-08-16T11:32:31.833Z,96571.03
2022-08-16T11:35:10.509Z,96571.69
2022-08-16T11:40:33.380Z,96566.56
2022-08-16T11:43:05.582Z,96570.22
2022-08-16T11:45:35.234Z,96566.06
2022-08-16T11:48:07.020Z,96566.66
2022-08-16T11:50:35.722Z,96558.53
2022-08-16T11:53:06.094Z,96564.22
2022-08-16T11:55:39.277Z,96560.97
2022-08-16T11:58:14.350Z,96559.09
2022-08-16T12:00:51.829Z,96558.25
2022-08-16T12:03:34.335Z,96569.00
2022-08-16T12:06:30.265Z,96562.34
2022-08-16T12:09:02.096Z,96573.53
2022-08-16T12:11:33.393Z,96558.09
2022-08-16T12:14:04.614Z,96549.97
2022-08-16T12:16:34.870Z,96549.34
2022-08-16T12:19:04.391Z,96547.63
2022-08-16T12:21:35.967Z,96551.81
2022-08-16T12:24:22.129Z,96547.78
2022-08-16T12:26:54.355Z,96544.91
2022-08-16T12:29:23.098Z,96539.03
2022-08-16T12:32:01.336Z,96546.84
2022-08-16T12:34:50.823Z,96552.38
2022-08-16T12:37:23.019Z,96547.06
2022-08-16T12:39:52.931Z,96541.47
2022-08-16T12:42:24.440Z,96541.84
2022-08-16T12:45:04.265Z,96543.38
2022-08-16T12:47:50.008Z,96540.88
2022-08-16T12:50:20.137Z,96531.09
2022-08-16T12:52:53.063Z,96542.91
2022-08-16T12:55:23.844Z,96538.78
2022-08-16T12:58:03.229Z,96539.19
2022-08-16T13:00:43.796Z,96531.63
2022-08-16T13:03:12.800Z,96532.53
2022-08-16T13:05:47.706Z,96532.88
2022-08-16T13:08:27.598Z,96524.78
2022-08-16T13:10:59.445Z,96523.38
2022-08-16T13:13:29.603Z,96534.84
2022-08-16T13:16:03.731Z,96533.50
2022-08-16T13:18:36.184Z,96532.66
2022-08-16T13:21:05.909Z,96523.59
2022-08-16T13:23:35.848Z,96531.69
2022-08-16T13:26:04.873Z,96530.88
2022-08-16T13:28:34.607Z,96523.53
2022-08-16T13:31:29.684Z,96517.38
2022-08-16T13:33:58.658Z,96506.03
2022-08-16T13:36:47.922Z,96518.78
2022-08-16T13:39:15.214Z,96518.59
2022-08-16T13:41:43.180Z,96515.44
2022-08-16T13:44:12.549Z,96517.13
2022-08-16T13:46:44.750Z,96510.41
2022-08-16T13:53:24.413Z,96507.34
2022-08-16T13:55:57.945Z,96510.38
2022-08-16T13:58:37.143Z,96503.34
2022-08-16T14:01:17.044Z,96502.47
2022-08-16T14:03:45.972Z,96505.38
2022-08-16T14:06:15.882Z,96511.28
2022-08-16T14:08:58.809Z,96516.94
2022-08-16T14:11:34.907Z,96511.56
2022-08-16T14:14:05.471Z,96516.75
2022-08-16T14:16:34.951Z,96511.59
2022-08-16T14:19:03.722Z,96511.41
2022-08-16T14:21:34.808Z,96509.50
2022-08-16T14:24:08.149Z,96495.19
2022-08-16T14:26:52.669Z,96505.06
2022-08-16T14:29:21.299Z,96508.47
2022-08-16T14:31:54.206Z,96504.66
2022-08-16T14:34:25.746Z,96497.16
2022-08-16T14:36:58.213Z,96503.09
2022-08-16T14:39:29.611Z,96503.09
2022-08-16T14:42:04.803Z,96494.84
2022-08-16T14:44:33.944Z,96505.88
2022-08-16T14:47:04.227Z,96492.44
2022-08-16T14:49:34.627Z,96494.81
2022-08-16T14:52:08.716Z,96498.22
2022-08-16T14:54:39.133Z,96492.16
2022-08-16T14:57:08.161Z,96497.50
2022-08-16T14:59:41.160Z,96493.00
2022-08-16T15:02:27.679Z,96493.47
2022-08-16T15:05:04.463Z,96492.38
2022-08-16T15:07:35.254Z,96491.34
2022-08-16T15:10:06.765Z,96486.25
2022-08-16T15:12:36.482Z,96487.00
2022-08-16T15:15:13.056Z,96494.63
2022-08-16T15:17:56.705Z,96502.47
2022-08-16T15:20:29.578Z,96505.59
2022-08-16T15:22:59.577Z,96511.44
2022-08-16T15:25:31.905Z,96510.19
2022-08-16T15:28:04.719Z,96512.63
2022-08-16T15:30:58.279Z,96500.94
2022-08-16T15:33:25.853Z,96510.66
2022-08-16T15:35:58.383Z,96505.88
2022-08-16T15:38:43.525Z,96516.75
2022-08-16T15:41:47.954Z,96509.56
2022-08-16T15:44:22.445Z,96513.63
2022-08-16T15:46:55.600Z,96510.56
2022-08-16T15:49:34.545Z,96507.91
2022-08-16T15:52:11.118Z,96512.19
2022-08-16T15:54:51.404Z,96513.16
2022-08-16T15:57:21.137Z,96513.81
2022-08-16T15:59:56.118Z,96508.53
2022-08-16T16:02:29.324Z,96518.50
2022-08-16T16:05:01.029Z,96522.63
2022-08-16T16:07:31.046Z,96516.47
2022-08-16T16:10:00.128Z,96509.66
2022-08-16T16:15:22.683Z,96515.63
2022-08-16T16:17:52.441Z,96513.19
2022-08-16T16:20:21.987Z,96512.34
2022-08-16T16:22:53.707Z,96513.09
2022-08-16T16:25:21.737Z,96514.97
2022-08-16T16:27:55.369Z,96517.88
2022-08-16T16:30:32.994Z,96515.63
2022-08-16T16:33:21.222Z,96519.88
2022-08-16T16:35:54.920Z,96512.28
2022-08-16T16:38:28.663Z,96508.88
2022-08-16T16:40:57.840Z,96517.00
2022-08-16T16:43:31.593Z,96510.59
2022-08-16T16:46:03.064Z,96512.38
2022-08-16T16:48:51.999Z,96511.56
2022-08-16T16:51:23.790Z,96501.88
2022-08-16T16:53:57.468Z,96508.06
2022-08-16T16:56:31.062Z,96512.00
2022-08-16T16:59:04.601Z,96508.97
2022-08-16T17:01:59.958Z,96515.28
2022-08-16T17:04:31.650Z,96515.94
2022-08-16T17:07:01.423Z,96514.16
2022-08-16T17:09:30.093Z,96517.47
2022-08-16T17:11:58.493Z,96516.41
2022-08-16T17:27:59.350Z,96518.91
2022-08-16T17:30:45.258Z,96522.63
2022-08-16T17:33:15.141Z,96523.47
2022-08-16T17:35:55.403Z,96533.94
2022-08-16T17:38:38.666Z,96529.53
2022-08-16T17:41:12.718Z,96538.03
2022-08-16T17:43:44.528Z,96541.50
2022-08-16T17:46:51.948Z,96543.31
2022-08-16T17:49:02.756Z,96542.72
2022-08-16T17:51:30.982Z,96552.81
2022-08-16T17:53:59.281Z,96552.13
2022-08-16T17:56:27.565Z,96554.34
2022-08-16T17:58:57.223Z,96552.94
2022-08-16T18:01:28.886Z,96562.09
2022-08-16T18:04:09.082Z,96569.28
2022-08-16T18:06:38.635Z,96565.13
2022-08-16T18:09:07.659Z,96567.59
2022-08-16T18:11:41.031Z,96578.16
2022-08-16T18:14:11.809Z,96573.66
2022-08-16T18:16:40.861Z,96574.06
2022-08-16T18:19:09.171Z,96585.06
2022-08-16T18:21:54.812Z,96584.03
2022-08-16T18:24:24.702Z,96591.38
2022-08-16T18:26:52.993Z,96587.53
2022-08-16T18:29:22.717Z,96589.28
2022-08-16T18:31:51.198Z,96603.25
2022-08-16T18:34:20.684Z,96599.91
2022-08-16T18:36:48.667Z,96611.00
2022-08-16T18:39:16.498Z,96605.81
2022-08-16T18:41:47.162Z,96614.72
2022-08-16T18:44:26.695Z,96603.97
2022-08-16T18:46:58.048Z,96617.44
2022-08-16T18:49:26.369Z,96616.81
2022-08-16T18:51:57.995Z,96626.50
2022-08-16T18:54:28.223Z,96628.59
2022-08-16T18:56:58.254Z,96628.75
2022-08-16T18:59:29.124Z,96627.06
2022-08-16T19:02:05.262Z,96628.59
2022-08-16T19:04:54.913Z,96631.47
2022-08-16T19:07:31.259Z,96636.25
2022-08-16T19:10:01.574Z,96639.28
2022-08-16T19:12:38.322Z,96642.31
2022-08-16T19:15:15.595Z,96634.19
2022-08-16T19:17:46.465Z,96640.97
2022-08-16T19:20:16.803Z,96645.97
2022-08-16T19:23:04.584Z,96648.06
2022-08-16T19:25:46.198Z,96648.06
2022-08-16T19:28:46.651Z,96643.38
2022-08-16T19:31:06.996Z,96654.50
2022-08-16T19:33:37.105Z,96660.22
2022-08-16T19:36:05.799Z,96652.09
2022-08-16T19:38:34.098Z,96658.53
2022-08-16T19:41:02.305Z,96662.34
2022-08-16T19:43:30.151Z,96663.47
2022-08-16T19:45:58.144Z,96660.41
2022-08-16T19:48:26.023Z,96663.34
2022-08-16T19:50:55.306Z,96662.63
2022-08-16T19:53:23.776Z,96665.81
2022-08-16T19:55:51.967Z,96667.50
2022-08-16T19:58:20.118Z,96659.56
2022-08-16T20:00:54.044Z,96656.88
2022-08-16T20:03:25.325Z,96666.63
2022-08-16T20:05:55.484Z,96669.16
2022-08-16T20:08:23.815Z,96671.69
2022-08-16T20:10:52.090Z,96670.44
2022-08-16T20:13:23.060Z,96677.28
2022-08-16T20:15:51.902Z,96676.19
2022-08-16T20:18:24.853Z,96676.88
2022-08-16T20:20:55.853Z,96683.09
2022-08-16T20:23:25.219Z,96684.91
2022-08-16T20:25:55.757Z,96694.25
2022-08-16T20:28:51.801Z,96689.66
2022-08-16T20:31:13.482Z,96689.06
2022-08-16T20:33:41.682Z,96693.69
2022-08-16T20:36:16.625Z,96694.25
2022-08-16T20:38:47.718Z,96694.94
2022-08-16T20:41:16.297Z,96700.06
2022-08-16T20:43:45.565Z,96702.28
2022-08-16T20:46:14.825Z,96702.56
2022-08-16T20:48:43.330Z,96698.94
2022-08-16T20:51:13.026Z,96697.00
2022-08-16T20:53:42.522Z,96697.00
2022-08-16T20:56:12.030Z,96693.97
2022-08-16T20:58:40.532Z,96700.19
2022-08-16T21:01:09.306Z,96696.97
2022-08-16T21:03:37.884Z,96706.44
2022-08-16T21:06:06.538Z,96703.06
2022-08-16T21:08:52.055Z,96698.69
2022-08-16T21:11:23.652Z,96697.03
2022-08-16T21:14:00.295Z,96693.84
2022-08-16T21:16:29.206Z,96698.59
2022-08-16T21:18:57.978Z,96702.22
2022-08-16T21:21:33.466Z,96700.84
2022-08-16T21:24:04.034Z,96695.00
2022-08-16T21:26:32.055Z,96693.75
2022-08-16T21:29:00.614Z,96696.66
2022-08-16T21:31:29.593Z,96696.50
2022-08-16T21:33:58.740Z,96702.44
2022-08-16T21:36:34.675Z,96704.50
2022-08-16T21:39:07.199Z,96707.56
2022-08-16T21:41:36.235Z,96700.22
2022-08-16T21:44:05.090Z,96704.31
2022-08-16T21:46:34.771Z,96694.06
2022-08-16T21:49:04.792Z,96704.31
2022-08-16T21:51:33.215Z,96699.28
2022-08-16T21:54:01.418Z,96703.44
2022-08-16T21:56:31.266Z,96696.47
2022-08-16T21:58:59.556Z,96698.53
2022-08-16T22:01:27.860Z,96698.84
2022-08-16T22:04:01.634Z,96695.47
2022-08-16T22:06:44.886Z,96694.19
2022-08-16T22:09:16.422Z,96693.63
2022-08-16T22:11:46.415Z,96687.19
2022-08-16T22:14:14.591Z,96689.53
2022-08-16T22:16:44.118Z,96685.78
2022-08-16T22:19:13.718Z,96691.63
2022-08-16T22:21:42.209Z,96686.06
2022-08-16T22:24:10.903Z,96695.31
2022-08-16T22:26:43.034Z,96697.38
2022-08-16T22:29:15.091Z,96695.69
2022-08-16T22:31:45.159Z,96695.75
2022-08-16T22:34:15.160Z,96705.13
2022-08-16T22:36:43.694Z,96706.84
2022-08-16T22:39:15.302Z,96709.66
2022-08-16T22:41:45.827Z,96713.78
2022-08-16T22:44:15.628Z,96721.59
2022-08-16T22:46:44.621Z,96714.06
2022-08-16T22:49:13.575Z,96714.97
2022-08-16T22:51:41.994Z,96709.47
2022-08-16T22:54:45.951Z,96711.78
2022-08-16T22:56:58.729Z,96714.56
2022-08-16T22:59:30.362Z,96708.56
2022-08-16T23:01:59.163Z,96705.97
2022-08-16T23:04:27.264Z,96713.13
2022-08-16T23:06:55.504Z,96714.28
2022-08-16T23:09:23.661Z,96719.16
2022-08-16T23:11:51.996Z,96706.66
2022-08-16T23:14:20.294Z,96707.25
2022-08-16T23:16:49.773Z,96712.53
2022-08-16T23:19:18.311Z,96712.06
2022-08-16T23:21:49.508Z,96708.13
2022-08-16T23:24:20.669Z,96706.84
2022-08-16T23:26:49.728Z,96712.06
2022-08-16T23:29:24.855Z,96717.44
2022-08-16T23:32:00.239Z,96706.47
2022-08-16T23:34:30.100Z,96713.34
2022-08-16T23:36:58.204Z,96708.44
2022-08-16T23:39:27.125Z,96703.28
2022-08-16T23:41:55.736Z,96701.78
2022-08-16T23:44:58.533Z,96701.53
2022-08-16T23:47:13.651Z,96695.63
2022-08-16T23:49:57.260Z,96695.75
2022-08-16T23:52:53.765Z,96696.22
2022-08-16T23:55:18.042Z,96691.25
2022-08-16T23:57:47.263Z,96687.06
